Hauptseite
METAR-TAF:

METAR-TAF

Flughäfen :

Chimoio, Mosambik

Breite: 19-07S, Länge: 033-28E, Höhe: 731 m

Beobachtung

Neuester Wetterbericht von vor 43 Minuten, um 03:00 UTC
Temperatur 17°C
Luftfeuchtigkeit 100%
Luftdruck 1021 hPa
Sichtweite 10 km oder mehr
Aufgelockert bewölkt in der Höhe von 2000 ft

METAR: FQCH 290300Z /////KT 9999 SCT020 17/17 Q1021

Zeit: 05:43 (03:43 UTC)

Prognose

Neuester Wetterbericht von vor 5 Stunden und 43 Minuten, um 22:00 UTC
Gültige Prognose vom 29 um 00 UTC bis 29 um 24 UTC
Wind 5 kt aus Südwest
Sichtweite 10 km oder mehr
Durchbrochene Bewölkung in der Höhe von 1500 ft
Leicht bewölkt in der Höhe von 2000 ft, Kumulonimbus.
Übergehend zu
vom 29 um 06 UTC bis 29 um 08 UTC
Wind 7 kt aus Süd/Südost
Übergehend zu
vom 29 um 12 UTC bis 29 um 14 UTC
Wind 6 kt aus Ost

TAF: FQCH 282200Z 2900/2924 23005KT 9999 BKN015 FEW020CB TX27/2913Z TN21/2903Z BECMG 2906/2908 16007KT BECMG 2912/2914 08006KT

Wetterbeobachtungen und Prognosen von mehr als 4000 Flughäfen (METAR und TAF Bericht).

Die verfügbaren Stationen werden durch gelbe und rote Markierungen auf der Karte dargestellt.

Führen Sie die Maus auf sie, um den Namen der Station zu sehen.

Darauf klicken, um die Beobachtung von Wetterbeobachtungen und Prognosen zu sehen.

Um die Karte zu ändern : klicken Sie auf den grünen Tasten mit einem schwarzen Kreuz Zum Vergrößern, auf den grünen Button mit einem Gedankenstrich zu verkleinern, oder auf die grünen Pfeile für benachbarte Karten.


METAR-TAF: